Time;durP1;ratioP1;P1;durP2;ratioP2;P2;SDS_P1;SDS_P2;PMS_P1;PMS_P2;Temp;Humidity;BMP_temperature;BMP_pressure;BME280_temperature;BME280_humidity;BME280_pressure;Samples;Min_cycle;Max_cycle;Signal;HPM_P1;HPM_P2
2024/04/18 00:00:04;;;;;;;;;;;;;;;;;;5365143;26;20723;-71
2024/04/18 00:02:30;;;;;;;;;;;;;;;;;;5368689;26;20000;-71
2024/04/18 00:04:56;;;;;;;;;;;;;;;;;;5376435;26;19925;-71
2024/04/18 00:07:22;;;;;;;;;;;;;;;;;;5374235;26;19932;-71
2024/04/18 00:09:48;;;;;;;;;;;;;;;;;;5371881;26;19932;-71
2024/04/18 00:12:14;;;;;;;;;;;;;;;;;;5362283;26;19925;-71
2024/04/18 00:14:40;;;;;;;;;;;;;;;;;;5397132;26;19937;-71
2024/04/18 00:17:05;;;;;;;;;;;;;;;;;;5358132;26;19929;-71
2024/04/18 00:19:31;;;;;;;;;;;;;;;;;;5369399;26;20068;-71
2024/04/18 00:21:57;;;;;;;;;;;;;;;;;;5356659;26;19951;-72
2024/04/18 00:24:23;;;;;;;;;;;;;;;;;;5364778;26;19940;-72
2024/04/18 00:26:49;;;;;;;;;;;;;;;;;;5386694;26;21896;-71
2024/04/18 00:29:15;;;;;;;;;;;;;;;;;;5315613;26;19925;-72
2024/04/18 00:31:41;;;;;;;;;;;;;;;;;;5319977;26;19925;-70
2024/04/18 00:34:07;;;;;;;;;;;;;;;;;;5320493;26;19924;-70
2024/04/18 00:36:33;;;;;;;;;;;;;;;;;;5326502;26;19925;-70
2024/04/18 00:38:59;;;;;;;;;;;;;;;;;;5333654;26;20031;-71
2024/04/18 00:41:25;;;;;;;;;;;;;;;;;;5328936;26;19998;-71
2024/04/18 00:43:51;;;;;;;;;;;;;;;;;;5325631;26;19949;-70
2024/04/18 00:46:17;;;;;;;;;;;;;;;;;;5313907;26;19932;-71
2024/04/18 00:48:43;;;;;;;;;;;;;;;;;;5321628;26;19933;-71
2024/04/18 00:51:09;;;;;;;;;;;;;;;;;;5312797;26;19998;-71
2024/04/18 00:53:35;;;;;;;;;;;;;;;;;;5319142;26;19960;-70
2024/04/18 00:56:01;;;;;;;;;;;;;;;;;;5312498;26;20838;-70
2024/04/18 00:58:27;;;;;;;;;;;;;;;;;;5316464;26;19931;-71
2024/04/18 01:00:53;;;;;;;;;;;;;;;;;;5319222;26;19925;-70
2024/04/18 01:03:19;;;;;;;;;;;;;;;;;;5318699;26;19937;-70
2024/04/18 01:05:45;;;;;;;;;;;;;;;;;;5370936;26;20500;-70
2024/04/18 01:08:10;;;;;;;;;;;;;;;;;;5370632;26;20870;-71
2024/04/18 01:10:36;;;;;;;;;;;;;;;;;;5380427;26;19959;-70
2024/04/18 01:13:02;;;;;;;;;;;;;;;;;;5372351;26;19924;-70
2024/04/18 01:15:28;;;;;;;;;;;;;;;;;;5378486;26;19925;-70
2024/04/18 01:17:54;;;;;;;;;;;;;;;;;;5376271;26;19928;-71
2024/04/18 01:20:20;;;;;;;;;;;;;;;;;;5385795;26;19937;-70
2024/04/18 01:22:46;;;;;;;;;;;;;;;;;;5384384;26;20575;-70
2024/04/18 01:25:12;;;;;;;;;;;;;;;;;;5359246;26;21992;-70
2024/04/18 01:27:38;;;;;;;;;;;;;;;;;;5378393;26;20452;-71
2024/04/18 01:30:04;;;;;;;;;;;;;;;;;;5370254;26;19933;-71
2024/04/18 01:32:30;;;;;;;;;;;;;;;;;;5375833;26;19932;-71
2024/04/18 01:34:56;;;;;;;;;;;;;;;;;;5373544;26;19932;-71
2024/04/18 01:37:22;;;;;;;;;;;;;;;;;;5380091;26;19943;-71
2024/04/18 01:39:48;;;;;;;;;;;;;;;;;;5377961;26;19932;-71
2024/04/18 01:42:14;;;;;;;;;;;;;;;;;;5365025;26;19932;-70
2024/04/18 01:44:41;;;;;;;;;;;;;;;;;;5368593;26;20002;-70
2024/04/18 01:47:06;;;;;;;;;;;;;;;;;;5372834;26;19932;-70
2024/04/18 01:49:32;;;;;;;;;;;;;;;;;;5378870;26;19937;-71
2024/04/18 01:51:58;;;;;;;;;;;;;;;;;;5373608;26;19932;-70
2024/04/18 01:54:24;;;;;;;;;;;;;;;;;;5383965;26;19975;-71
2024/04/18 01:56:50;;;;;;;;;;;;;;;;;;5363123;26;19945;-71
2024/04/18 01:59:16;;;;;;;;;;;;;;;;;;5373485;26;19953;-71
2024/04/18 02:01:42;;;;;;;;;;;;;;;;;;5379080;26;19939;-71
2024/04/18 02:04:09;;;;;;;;;;;;;;;;;;5363031;26;19964;-70
2024/04/18 02:06:35;;;;;;;;;;;;;;;;;;5381728;26;19932;-71
2024/04/18 02:09:01;;;;;;;;;;;;;;;;;;5378937;26;19924;-71
2024/04/18 02:11:27;;;;;;;;;;;;;;;;;;5369587;26;19932;-71
2024/04/18 02:13:53;;;;;;;;;;;;;;;;;;5373756;26;20492;-71
2024/04/18 02:16:19;;;;;;;;;;;;;;;;;;5376588;26;19998;-71
2024/04/18 02:18:45;;;;;;;;;;;;;;;;;;5367977;26;19937;-70
2024/04/18 02:21:11;;;;;;;;;;;;;;;;;;5385555;26;19948;-70
2024/04/18 02:23:37;;;;;;;;;;;;;;;;;;5380670;26;19948;-71
2024/04/18 02:26:03;;;;;;;;;;;;;;;;;;5376739;26;20002;-71
2024/04/18 02:28:29;;;;;;;;;;;;;;;;;;5365355;26;20061;-71
2024/04/18 02:30:55;;;;;;;;;;;;;;;;;;5360430;26;19925;-71
2024/04/18 02:33:21;;;;;;;;;;;;;;;;;;5377402;26;19932;-71
2024/04/18 02:35:47;;;;;;;;;;;;;;;;;;5368573;26;20251;-71
2024/04/18 02:38:13;;;;;;;;;;;;;;;;;;5356873;26;21258;-71
2024/04/18 02:40:39;;;;;;;;;;;;;;;;;;5364526;26;19932;-71
2024/04/18 02:43:05;;;;;;;;;;;;;;;;;;5383347;26;19936;-71
2024/04/18 02:45:31;;;;;;;;;;;;;;;;;;5363471;26;20569;-72
2024/04/18 02:47:57;;;;;;;;;;;;;;;;;;5374486;26;19932;-72
2024/04/18 02:50:23;;;;;;;;;;;;;;;;;;5377317;26;20002;-71
2024/04/18 02:52:49;;;;;;;;;;;;;;;;;;5376792;26;19925;-71
2024/04/18 02:55:15;;;;;;;;;;;;;;;;;;5375921;26;20019;-71
2024/04/18 02:57:40;;;;;;;;;;;;;;;;;;5380900;26;20208;-72
2024/04/18 03:00:06;;;;;;;;;;;;;;;;;;5368008;26;19961;-72
2024/04/18 03:02:32;;;;;;;;;;;;;;;;;;5386848;26;19972;-71
2024/04/18 03:04:58;;;;;;;;;;;;;;;;;;5375952;26;19925;-67
2024/04/18 03:07:24;;;;;;;;;;;;;;;;;;5366483;26;19961;-67
2024/04/18 03:09:52;;;;;;;;;;;;;;;;;;5381419;26;19924;-67
2024/04/18 03:12:18;;;;;;;;;;;;;;;;;;5385346;26;20010;-67
2024/04/18 03:14:44;;;;;;;;;;;;;;;;;;5383595;26;19937;-67
2024/04/18 03:17:10;;;;;;;;;;;;;;;;;;5376189;26;19929;-67
2024/04/18 03:19:36;;;;;;;;;;;;;;;;;;5380980;26;19925;-67
2024/04/18 03:22:02;;;;;;;;;;;;;;;;;;5376462;26;19944;-67
2024/04/18 03:24:28;;;;;;;;;;;;;;;;;;5378899;26;19968;-67
2024/04/18 03:26:54;;;;;;;;;;;;;;;;;;5382269;26;19932;-67
2024/04/18 03:29:20;;;;;;;;;;;;;;;;;;5368501;26;19926;-67
2024/04/18 03:31:46;;;;;;;;;;;;;;;;;;5375695;26;20375;-67
2024/04/18 03:34:12;;;;;;;;;;;;;;;;;;5362685;26;19937;-67
2024/04/18 03:36:41;;;;;;;;;;;;;;;;;;5372459;26;19967;-67
2024/04/18 03:39:07;;;;;;;;;;;;;;;;;;5372441;26;19973;-67
2024/04/18 03:41:33;;;;;;;;;;;;;;;;;;5376314;26;19925;-67
2024/04/18 03:43:59;;;;;;;;;;;;;;;;;;5363060;26;19925;-67
2024/04/18 03:46:25;;;;;;;;;;;;;;;;;;5378678;26;19940;-67
2024/04/18 03:48:51;;;;;;;;;;;;;;;;;;5390242;26;19964;-67
2024/04/18 03:51:17;;;;;;;;;;;;;;;;;;5362424;26;19932;-67
2024/04/18 03:53:43;;;;;;;;;;;;;;;;;;5381587;26;19932;-67
2024/04/18 03:56:09;;;;;;;;;;;;;;;;;;5386504;26;19999;-67
2024/04/18 03:58:35;;;;;;;;;;;;;;;;;;5374300;26;20494;-67
2024/04/18 04:01:01;;;;;;;;;;;;;;;;;;5369520;26;20158;-67
2024/04/18 04:03:27;;;;;;;;;;;;;;;;;;5376067;26;19944;-67
2024/04/18 04:05:54;;;;;;;;;;;;;;;;;;5374418;26;19925;-67
2024/04/18 04:08:20;;;;;;;;;;;;;;;;;;5373677;26;21006;-67
2024/04/18 04:10:46;;;;;;;;;;;;;;;;;;5370844;26;19960;-67
2024/04/18 04:13:12;;;;;;;;;;;;;;;;;;5368974;26;19953;-67
2024/04/18 04:15:38;;;;;;;;;;;;;;;;;;5361375;26;19984;-67
2024/04/18 04:18:04;;;;;;;;;;;;;;;;;;5373933;26;19939;-67
2024/04/18 04:20:30;;;;;;;;;;;;;;;;;;5379713;26;20001;-67
2024/04/18 04:22:56;;;;;;;;;;;;;;;;;;5357166;26;19939;-67
2024/04/18 04:25:22;;;;;;;;;;;;;;;;;;5365463;26;20302;-67
2024/04/18 04:27:48;;;;;;;;;;;;;;;;;;5374759;26;20425;-67
2024/04/18 04:30:14;;;;;;;;;;;;;;;;;;5371141;26;19936;-67
2024/04/18 04:32:40;;;;;;;;;;;;;;;;;;5363815;26;19944;-67
2024/04/18 04:35:07;;;;;;;;;;;;;;;;;;5370194;26;20501;-67
2024/04/18 04:37:33;;;;;;;;;;;;;;;;;;5363670;26;19931;-67
2024/04/18 04:39:59;;;;;;;;;;;;;;;;;;5371560;26;19932;-67
2024/04/18 04:42:25;;;;;;;;;;;;;;;;;;5368266;26;19997;-67
2024/04/18 04:44:52;;;;;;;;;;;;;;;;;;5361319;26;19933;-67
2024/04/18 04:47:18;;;;;;;;;;;;;;;;;;5368619;26;19925;-67
2024/04/18 04:49:44;;;;;;;;;;;;;;;;;;5372651;26;19932;-67
2024/04/18 04:52:10;;;;;;;;;;;;;;;;;;5372156;26;20022;-67
2024/04/18 04:54:37;;;;;;;;;;;;;;;;;;5376623;26;19929;-67
2024/04/18 04:57:03;;;;;;;;;;;;;;;;;;5357798;26;19933;-67
2024/04/18 04:59:29;;;;;;;;;;;;;;;;;;5371457;26;20374;-68
2024/04/18 05:01:55;;;;;;;;;;;;;;;;;;5358042;26;19937;-67
2024/04/18 05:04:21;;;;;;;;;;;;;;;;;;5372533;26;20371;-67
2024/04/18 05:06:47;;;;;;;;;;;;;;;;;;5373517;26;19933;-67
2024/04/18 05:09:13;;;;;;;;;;;;;;;;;;5372447;26;20704;-67
2024/04/18 05:11:39;;;;;;;;;;;;;;;;;;5362608;26;19986;-67
2024/04/18 05:14:05;;;;;;;;;;;;;;;;;;5372199;26;19924;-67
2024/04/18 05:16:31;;;;;;;;;;;;;;;;;;5375900;26;20354;-67
2024/04/18 05:18:57;;;;;;;;;;;;;;;;;;5365705;26;19924;-67
2024/04/18 05:21:23;;;;;;;;;;;;;;;;;;5380903;26;20035;-67
2024/04/18 05:23:49;;;;;;;;;;;;;;;;;;5386628;26;20442;-67
2024/04/18 05:26:15;;;;;;;;;;;;;;;;;;5371013;26;19936;-68
2024/04/18 05:28:41;;;;;;;;;;;;;;;;;;5395101;26;20363;-67
2024/04/18 05:31:07;;;;;;;;;;;;;;;;;;5366661;26;19940;-67
2024/04/18 05:33:33;;;;;;;;;;;;;;;;;;5376575;26;19933;-68
2024/04/18 05:35:59;;;;;;;;;;;;;;;;;;5358542;26;19932;-67
2024/04/18 05:38:25;;;;;;;;;;;;;;;;;;5368387;26;19932;-67
2024/04/18 05:40:51;;;;;;;;;;;;;;;;;;5375350;26;19933;-67
2024/04/18 05:43:17;;;;;;;;;;;;;;;;;;5358867;26;19933;-67
2024/04/18 05:45:43;;;;;;;;;;;;;;;;;;5364206;26;20000;-67
2024/04/18 05:48:09;;;;;;;;;;;;;;;;;;5393336;26;20290;-68
2024/04/18 05:50:35;;;;;;;;;;;;;;;;;;5365499;26;19953;-67
2024/04/18 05:53:01;;;;;;;;;;;;;;;;;;5368217;26;19933;-68
2024/04/18 05:55:27;;;;;;;;;;;;;;;;;;5364909;26;19940;-67
2024/04/18 05:57:53;;;;;;;;;;;;;;;;;;5362763;26;19933;-67
2024/04/18 06:00:19;;;;;;;;;;;;;;;;;;5370163;26;20481;-67
2024/04/18 06:02:45;;;;;;;;;;;;;;;;;;5372228;26;20757;-68
2024/04/18 06:05:10;;;;;;;;;;;;;;;;;;5365220;26;19948;-66
2024/04/18 06:07:36;;;;;;;;;;;;;;;;;;5372491;26;19933;-66
2024/04/18 06:10:02;;;;;;;;;;;;;;;;;;5371912;26;19944;-66
2024/04/18 06:12:28;;;;;;;;;;;;;;;;;;5365147;26;19993;-67
2024/04/18 06:14:54;;;;;;;;;;;;;;;;;;5366876;26;19939;-67
2024/04/18 06:17:20;;;;;;;;;;;;;;;;;;5373413;26;19940;-67
2024/04/18 06:19:46;;;;;;;;;;;;;;;;;;5375658;26;19971;-67
2024/04/18 06:22:12;;;;;;;;;;;;;;;;;;5368633;26;19941;-67
2024/04/18 06:24:39;;;;;;;;;;;;;;;;;;5374787;26;19939;-68
2024/04/18 06:27:05;;;;;;;;;;;;;;;;;;5370577;26;20443;-67
2024/04/18 06:29:31;;;;;;;;;;;;;;;;;;5369258;26;19987;-67
2024/04/18 06:31:57;;;;;;;;;;;;;;;;;;5370969;26;19932;-67
2024/04/18 06:34:23;;;;;;;;;;;;;;;;;;5376565;26;19944;-67
2024/04/18 06:36:49;;;;;;;;;;;;;;;;;;5363581;26;19925;-67
2024/04/18 06:39:15;;;;;;;;;;;;;;;;;;5362332;26;19931;-67
2024/04/18 06:41:41;;;;;;;;;;;;;;;;;;5373947;26;19967;-67
2024/04/18 06:44:07;;;;;;;;;;;;;;;;;;5385106;26;19938;-66
2024/04/18 06:46:34;;;;;;;;;;;;;;;;;;5375288;26;19936;-66
2024/04/18 06:49:00;;;;;;;;;;;;;;;;;;5368143;26;21077;-66
2024/04/18 06:51:26;;;;;;;;;;;;;;;;;;5376989;26;20466;-66
2024/04/18 06:53:52;;;;;;;;;;;;;;;;;;5363920;26;19939;-67
2024/04/18 06:56:18;;;;;;;;;;;;;;;;;;5394284;26;19925;-66
2024/04/18 06:58:46;;;;;;;;;;;;;;;;;;5365299;26;19957;-68
2024/04/18 07:01:12;;;;;;;;;;;;;;;;;;5369102;26;21650;-68
2024/04/18 07:03:38;;;;;;;;;;;;;;;;;;5377033;26;20680;-68
2024/04/18 07:06:04;;;;;;;;;;;;;;;;;;5367220;26;19925;-66
2024/04/18 07:08:30;;;;;;;;;;;;;;;;;;5370749;26;19994;-66
2024/04/18 07:10:56;;;;;;;;;;;;;;;;;;5363715;26;19975;-67
2024/04/18 07:13:22;;;;;;;;;;;;;;;;;;5391991;26;19995;-67
2024/04/18 07:15:48;;;;;;;;;;;;;;;;;;5371664;26;19944;-67
2024/04/18 07:18:14;;;;;;;;;;;;;;;;;;5372022;26;20064;-67
2024/04/18 07:20:40;;;;;;;;;;;;;;;;;;5378337;26;19932;-66
2024/04/18 07:23:06;;;;;;;;;;;;;;;;;;5374234;26;20002;-67
2024/04/18 07:25:31;;;;;;;;;;;;;;;;;;5377201;26;20010;-67
2024/04/18 07:27:57;;;;;;;;;;;;;;;;;;5366955;26;20709;-67
2024/04/18 07:30:23;;;;;;;;;;;;;;;;;;5373488;26;19940;-67
2024/04/18 07:32:51;;;;;;;;;;;;;;;;;;5398186;26;19933;-66
2024/04/18 07:35:17;;;;;;;;;;;;;;;;;;5375782;26;20404;-66
2024/04/18 07:37:43;;;;;;;;;;;;;;;;;;5384631;26;19988;-66
2024/04/18 07:40:12;;;;;;;;;;;;;;;;;;5385155;26;19925;-69
2024/04/18 07:42:38;;;;;;;;;;;;;;;;;;5371148;26;19931;-66
2024/04/18 07:45:04;;;;;;;;;;;;;;;;;;5372099;26;19928;-67
2024/04/18 07:47:30;;;;;;;;;;;;;;;;;;5375646;26;20365;-67
2024/04/18 07:49:56;;;;;;;;;;;;;;;;;;5372501;26;20072;-67
2024/04/18 07:52:22;;;;;;;;;;;;;;;;;;5373550;26;20679;-67
2024/04/18 07:54:48;;;;;;;;;;;;;;;;;;5374365;26;20841;-67
2024/04/18 07:57:14;;;;;;;;;;;;;;;;;;5367328;26;19933;-67
2024/04/18 07:59:39;;;;;;;;;;;;;;;;;;5377042;26;19932;-67
2024/04/18 08:02:05;;;;;;;;;;;;;;;;;;5352592;26;20424;-68
2024/04/18 08:04:31;;;;;;;;;;;;;;;;;;5393824;26;20445;-67
2024/04/18 08:06:57;;;;;;;;;;;;;;;;;;5369791;26;19939;-66
2024/04/18 08:09:23;;;;;;;;;;;;;;;;;;5396732;26;19975;-67
2024/04/18 08:11:49;;;;;;;;;;;;;;;;;;5376191;26;20617;-67
2024/04/18 08:14:15;;;;;;;;;;;;;;;;;;5367379;26;20029;-66
2024/04/18 08:16:41;;;;;;;;;;;;;;;;;;5399948;26;19932;-67
2024/04/18 08:19:07;;;;;;;;;;;;;;;;;;5365117;26;20399;-66
2024/04/18 08:21:33;;;;;;;;;;;;;;;;;;5374028;26;19973;-66
2024/04/18 08:24:01;;;;;;;;;;;;;;;;;;5358460;26;19925;-66
2024/04/18 08:26:27;;;;;;;;;;;;;;;;;;5382939;26;19933;-66
2024/04/18 08:28:53;;;;;;;;;;;;;;;;;;5372126;26;19997;-67
2024/04/18 08:31:19;;;;;;;;;;;;;;;;;;5379220;26;20580;-67
2024/04/18 08:33:46;;;;;;;;;;;;;;;;;;5361369;26;19925;-67
2024/04/18 08:36:12;;;;;;;;;;;;;;;;;;5392951;26;19941;-66
2024/04/18 08:38:38;;;;;;;;;;;;;;;;;;5376460;26;19925;-66
2024/04/18 08:41:10;;;;;;;;;;;;;;;;;;5360473;26;19961;-67
2024/04/18 08:43:36;;;;;;;;;;;;;;;;;;5377905;26;20665;-67
2024/04/18 08:46:02;;;;;;;;;;;;;;;;;;5370097;26;19994;-67
2024/04/18 08:48:28;;;;;;;;;;;;;;;;;;5368806;26;20390;-67
2024/04/18 08:50:53;;;;;;;;;;;;;;;;;;5388897;26;20985;-68
2024/04/18 08:53:19;;;;;;;;;;;;;;;;;;5362080;26;20002;-68
2024/04/18 08:55:45;;;;;;;;;;;;;;;;;;5383597;26;20627;-67
2024/04/18 08:58:11;;;;;;;;;;;;;;;;;;5362638;26;19937;-68
2024/04/18 09:00:37;;;;;;;;;;;;;;;;;;5369736;26;19940;-68
2024/04/18 09:03:03;;;;;;;;;;;;;;;;;;5375777;26;19932;-68
2024/04/18 09:05:29;;;;;;;;;;;;;;;;;;5368186;26;20504;-68
2024/04/18 09:07:56;;;;;;;;;;;;;;;;;;5371072;26;19935;-67
2024/04/18 09:10:23;;;;;;;;;;;;;;;;;;5372797;26;19925;-67
2024/04/18 09:12:51;;;;;;;;;;;;;;;;;;5377041;26;19994;-69
2024/04/18 09:15:17;;;;;;;;;;;;;;;;;;5364035;26;19929;-67
2024/04/18 09:17:43;;;;;;;;;;;;;;;;;;5370454;26;19933;-69
2024/04/18 09:20:09;;;;;;;;;;;;;;;;;;5357940;26;19936;-67
2024/04/18 09:22:35;;;;;;;;;;;;;;;;;;5382317;26;20505;-67
2024/04/18 09:25:01;;;;;;;;;;;;;;;;;;5369447;26;19925;-67
2024/04/18 09:27:27;;;;;;;;;;;;;;;;;;5364160;26;20032;-67
2024/04/18 09:29:53;;;;;;;;;;;;;;;;;;5363013;26;19995;-67
2024/04/18 09:32:21;;;;;;;;;;;;;;;;;;5372159;26;19931;-67
2024/04/18 09:34:47;;;;;;;;;;;;;;;;;;5374146;26;19933;-67
2024/04/18 09:37:13;;;;;;;;;;;;;;;;;;5361303;26;20715;-67
2024/04/18 09:39:39;;;;;;;;;;;;;;;;;;5379418;26;19924;-67
2024/04/18 09:42:05;;;;;;;;;;;;;;;;;;5369947;26;19925;-67
2024/04/18 09:44:31;;;;;;;;;;;;;;;;;;5372094;26;19939;-67
2024/04/18 09:46:57;;;;;;;;;;;;;;;;;;5364906;26;20762;-67
2024/04/18 09:49:23;;;;;;;;;;;;;;;;;;5376117;26;19953;-68
2024/04/18 09:51:49;;;;;;;;;;;;;;;;;;5394568;26;19924;-67
2024/04/18 09:54:15;;;;;;;;;;;;;;;;;;5371102;26;19925;-67
2024/04/18 09:56:41;;;;;;;;;;;;;;;;;;5372085;26;19932;-67
2024/04/18 09:59:07;;;;;;;;;;;;;;;;;;5363353;26;20484;-66
2024/04/18 10:01:33;;;;;;;;;;;;;;;;;;5376305;26;19925;-69
2024/04/18 10:03:59;;;;;;;;;;;;;;;;;;5368631;26;19932;-68
2024/04/18 10:06:25;;;;;;;;;;;;;;;;;;5374392;26;19998;-68
2024/04/18 10:08:51;;;;;;;;;;;;;;;;;;5377580;26;20013;-68
2024/04/18 10:11:17;;;;;;;;;;;;;;;;;;5366293;26;19961;-68
2024/04/18 10:13:43;;;;;;;;;;;;;;;;;;5393554;26;19940;-73
2024/04/18 10:16:10;;;;;;;;;;;;;;;;;;5390155;26;19925;-71
2024/04/18 10:18:35;;;;;;;;;;;;;;;;;;5374342;26;20961;-73
2024/04/18 10:21:01;;;;;;;;;;;;;;;;;;5398759;26;19925;-71
2024/04/18 10:23:27;;;;;;;;;;;;;;;;;;5375058;26;20483;-71
2024/04/18 10:25:53;;;;;;;;;;;;;;;;;;5366786;26;19931;-67
2024/04/18 10:28:19;;;;;;;;;;;;;;;;;;5372909;26;20002;-70
2024/04/18 10:30:45;;;;;;;;;;;;;;;;;;5366569;26;19932;-67
2024/04/18 10:33:11;;;;;;;;;;;;;;;;;;5369786;26;19969;-67
2024/04/18 10:35:37;;;;;;;;;;;;;;;;;;5377196;26;19969;-68
2024/04/18 10:38:04;;;;;;;;;;;;;;;;;;5361569;26;19925;-68
2024/04/18 10:40:31;;;;;;;;;;;;;;;;;;5375130;26;20014;-68
2024/04/18 10:42:57;;;;;;;;;;;;;;;;;;5362581;26;19933;-68
2024/04/18 10:45:23;;;;;;;;;;;;;;;;;;5374350;26;20000;-68
2024/04/18 10:47:49;;;;;;;;;;;;;;;;;;5371387;26;19943;-68
2024/04/18 10:50:15;;;;;;;;;;;;;;;;;;5363695;26;19972;-68
2024/04/18 10:52:41;;;;;;;;;;;;;;;;;;5349574;26;19939;-68
2024/04/18 10:55:07;;;;;;;;;;;;;;;;;;5390542;26;19933;-68
2024/04/18 10:57:33;;;;;;;;;;;;;;;;;;5363529;26;20885;-67
2024/04/18 10:59:59;;;;;;;;;;;;;;;;;;5369682;26;20002;-67
2024/04/18 11:02:25;;;;;;;;;;;;;;;;;;5363611;26;19943;-68
2024/04/18 11:04:51;;;;;;;;;;;;;;;;;;5355795;26;19925;-68
2024/04/18 11:07:17;;;;;;;;;;;;;;;;;;5361952;26;19933;-68
2024/04/18 11:09:44;;;;;;;;;;;;;;;;;;5372056;26;19932;-68
2024/04/18 11:12:09;;;;;;;;;;;;;;;;;;5368644;26;19940;-67
2024/04/18 11:14:35;;;;;;;;;;;;;;;;;;5365684;26;19947;-68
2024/04/18 11:17:01;;;;;;;;;;;;;;;;;;5371324;26;19932;-68
2024/04/18 11:19:27;;;;;;;;;;;;;;;;;;5363748;26;20754;-68
2024/04/18 11:21:53;;;;;;;;;;;;;;;;;;5358770;26;20270;-73
2024/04/18 11:24:19;;;;;;;;;;;;;;;;;;5367016;26;19925;-68
2024/04/18 11:26:45;;;;;;;;;;;;;;;;;;5376153;26;20022;-67
2024/04/18 11:29:11;;;;;;;;;;;;;;;;;;5377995;26;19930;-69
2024/04/18 11:31:37;;;;;;;;;;;;;;;;;;5370615;26;20359;-69
2024/04/18 11:34:03;;;;;;;;;;;;;;;;;;5369666;26;20679;-69
2024/04/18 11:36:29;;;;;;;;;;;;;;;;;;5370964;26;19940;-71
2024/04/18 11:38:55;;;;;;;;;;;;;;;;;;5362888;26;20006;-68
2024/04/18 11:41:22;;;;;;;;;;;;;;;;;;5363251;26;19940;-69
2024/04/18 11:43:48;;;;;;;;;;;;;;;;;;5363421;26;20003;-68
2024/04/18 11:46:13;;;;;;;;;;;;;;;;;;5356407;26;20564;-69
2024/04/18 11:48:39;;;;;;;;;;;;;;;;;;5372447;26;20926;-69
2024/04/18 11:51:05;;;;;;;;;;;;;;;;;;5371096;26;19925;-69
2024/04/18 11:53:31;;;;;;;;;;;;;;;;;;5371707;26;19932;-69
2024/04/18 11:55:58;;;;;;;;;;;;;;;;;;5363225;26;20461;-69
2024/04/18 11:58:24;;;;;;;;;;;;;;;;;;5359169;26;20880;-71
2024/04/18 12:00:50;;;;;;;;;;;;;;;;;;5357286;26;19924;-68
2024/04/18 12:03:16;;;;;;;;;;;;;;;;;;5358096;26;19925;-69
2024/04/18 12:05:42;;;;;;;;;;;;;;;;;;5395938;26;19989;-69
2024/04/18 12:08:08;;;;;;;;;;;;;;;;;;5361019;26;20540;-69
2024/04/18 12:10:34;;;;;;;;;;;;;;;;;;5370040;26;20018;-69
2024/04/18 12:13:00;;;;;;;;;;;;;;;;;;5360045;26;19931;-69
2024/04/18 12:15:26;;;;;;;;;;;;;;;;;;5369105;26;19931;-69
2024/04/18 12:17:51;;;;;;;;;;;;;;;;;;5369809;26;19932;-69
2024/04/18 12:20:19;;;;;;;;;;;;;;;;;;5346293;26;19924;-69
2024/04/18 12:22:45;;;;;;;;;;;;;;;;;;5371418;26;20407;-69
2024/04/18 12:25:11;;;;;;;;;;;;;;;;;;5366663;26;22069;-69
2024/04/18 12:27:37;;;;;;;;;;;;;;;;;;5360990;26;19931;-69
2024/04/18 12:30:03;;;;;;;;;;;;;;;;;;5367102;26;19935;-69
2024/04/18 12:32:29;;;;;;;;;;;;;;;;;;5364257;26;20075;-69
2024/04/18 12:34:55;;;;;;;;;;;;;;;;;;5352397;26;19933;-70
2024/04/18 12:37:21;;;;;;;;;;;;;;;;;;5360624;26;20532;-69
2024/04/18 12:39:48;;;;;;;;;;;;;;;;;;5363951;26;19924;-69
2024/04/18 12:42:14;;;;;;;;;;;;;;;;;;5381099;26;19932;-69
2024/04/18 12:44:40;;;;;;;;;;;;;;;;;;5390493;26;19993;-69
2024/04/18 12:47:05;;;;;;;;;;;;;;;;;;5361882;26;19931;-69
2024/04/18 12:49:31;;;;;;;;;;;;;;;;;;5369247;26;19952;-69
2024/04/18 12:51:57;;;;;;;;;;;;;;;;;;5368719;26;20268;-69
2024/04/18 12:54:23;;;;;;;;;;;;;;;;;;5373665;26;19937;-69
2024/04/18 12:56:49;;;;;;;;;;;;;;;;;;5384235;26;20363;-69
2024/04/18 12:59:16;;;;;;;;;;;;;;;;;;5378114;26;19941;-69
2024/04/18 13:01:42;;;;;;;;;;;;;;;;;;5364895;26;19925;-69
2024/04/18 13:04:08;;;;;;;;;;;;;;;;;;5359483;26;21962;-69
2024/04/18 13:06:34;;;;;;;;;;;;;;;;;;5373430;26;19925;-68
2024/04/18 13:09:00;;;;;;;;;;;;;;;;;;5370571;26;19925;-68
2024/04/18 13:11:26;;;;;;;;;;;;;;;;;;5364799;26;19953;-69
2024/04/18 13:13:52;;;;;;;;;;;;;;;;;;5393866;26;19940;-68
2024/04/18 13:16:18;;;;;;;;;;;;;;;;;;5345111;26;19933;-69
2024/04/18 13:18:44;;;;;;;;;;;;;;;;;;5375401;26;20005;-69
2024/04/18 13:21:10;;;;;;;;;;;;;;;;;;5365474;26;19948;-69
2024/04/18 13:23:36;;;;;;;;;;;;;;;;;;5363655;26;19925;-69
2024/04/18 13:26:02;;;;;;;;;;;;;;;;;;5368366;26;19940;-68
2024/04/18 13:28:28;;;;;;;;;;;;;;;;;;5374858;26;19925;-69
2024/04/18 13:30:54;;;;;;;;;;;;;;;;;;5366197;26;19924;-69
2024/04/18 13:33:20;;;;;;;;;;;;;;;;;;5366234;26;21043;-69
2024/04/18 13:35:46;;;;;;;;;;;;;;;;;;5365288;26;20493;-69
2024/04/18 13:38:12;;;;;;;;;;;;;;;;;;5356873;26;20042;-69
2024/04/18 13:40:37;;;;;;;;;;;;;;;;;;5371483;26;19966;-69
2024/04/18 13:43:03;;;;;;;;;;;;;;;;;;5370371;26;19925;-70
2024/04/18 13:45:30;;;;;;;;;;;;;;;;;;5372938;26;20388;-68
2024/04/18 13:47:56;;;;;;;;;;;;;;;;;;5366238;26;19931;-68
2024/04/18 13:50:21;;;;;;;;;;;;;;;;;;5371369;26;20385;-69
2024/04/18 13:52:47;;;;;;;;;;;;;;;;;;5373436;26;20038;-69
2024/04/18 13:55:13;;;;;;;;;;;;;;;;;;5361396;26;19936;-70
2024/04/18 13:57:39;;;;;;;;;;;;;;;;;;5372870;26;19925;-73
2024/04/18 14:00:05;;;;;;;;;;;;;;;;;;5371837;26;20352;-69
2024/04/18 14:02:31;;;;;;;;;;;;;;;;;;5377491;26;20000;-69
2024/04/18 14:04:57;;;;;;;;;;;;;;;;;;5368054;26;19965;-68
2024/04/18 14:07:23;;;;;;;;;;;;;;;;;;5367724;26;20275;-68
2024/04/18 14:09:49;;;;;;;;;;;;;;;;;;5366133;26;19937;-68
2024/04/18 14:12:15;;;;;;;;;;;;;;;;;;5373430;26;19932;-68
2024/04/18 14:14:41;;;;;;;;;;;;;;;;;;5406648;26;20721;-68
2024/04/18 14:19:52;;;;;;;;;;;;;;;;;;5371916;26;19935;-67
2024/04/18 14:22:18;;;;;;;;;;;;;;;;;;5372808;26;19932;-68
2024/04/18 14:24:43;;;;;;;;;;;;;;;;;;5370864;26;19936;-69
2024/04/18 14:27:09;;;;;;;;;;;;;;;;;;5372166;26;19924;-69
2024/04/18 14:29:35;;;;;;;;;;;;;;;;;;5396242;26;20385;-69
2024/04/18 14:32:01;;;;;;;;;;;;;;;;;;5373662;26;20690;-68
2024/04/18 14:34:27;;;;;;;;;;;;;;;;;;5370223;26;19925;-69
2024/04/18 14:36:53;;;;;;;;;;;;;;;;;;5360849;26;19968;-69
2024/04/18 14:39:19;;;;;;;;;;;;;;;;;;5378818;26;20791;-68
2024/04/18 14:41:45;;;;;;;;;;;;;;;;;;5370766;26;19944;-69
2024/04/18 14:44:11;;;;;;;;;;;;;;;;;;5363623;26;19925;-69
2024/04/18 14:46:37;;;;;;;;;;;;;;;;;;5371250;26;19967;-69
2024/04/18 14:49:04;;;;;;;;;;;;;;;;;;5360203;26;20858;-68
2024/04/18 14:51:30;;;;;;;;;;;;;;;;;;5374388;26;20014;-68
2024/04/18 14:53:56;;;;;;;;;;;;;;;;;;5374128;26;20016;-68
2024/04/18 14:56:22;;;;;;;;;;;;;;;;;;5376071;26;19928;-68
2024/04/18 14:58:48;;;;;;;;;;;;;;;;;;5377651;26;19937;-68
2024/04/18 15:01:15;;;;;;;;;;;;;;;;;;5375011;26;20694;-68
2024/04/18 15:03:41;;;;;;;;;;;;;;;;;;5361731;26;19925;-68
2024/04/18 15:06:08;;;;;;;;;;;;;;;;;;5361559;26;19935;-69
2024/04/18 15:08:34;;;;;;;;;;;;;;;;;;5357208;26;19925;-68
2024/04/18 15:11:00;;;;;;;;;;;;;;;;;;5370208;26;19932;-68
2024/04/18 15:13:26;;;;;;;;;;;;;;;;;;5369577;26;19933;-68
2024/04/18 15:15:52;;;;;;;;;;;;;;;;;;5361920;26;20009;-69
2024/04/18 15:18:18;;;;;;;;;;;;;;;;;;5370774;26;19933;-69
2024/04/18 15:20:44;;;;;;;;;;;;;;;;;;5376588;26;20687;-68
2024/04/18 15:23:10;;;;;;;;;;;;;;;;;;5372855;26;19924;-69
2024/04/18 15:25:37;;;;;;;;;;;;;;;;;;5376802;26;20430;-69
2024/04/18 15:28:03;;;;;;;;;;;;;;;;;;5365132;26;19967;-69
2024/04/18 15:30:28;;;;;;;;;;;;;;;;;;5378244;26;20006;-69
2024/04/18 15:32:54;;;;;;;;;;;;;;;;;;5363710;26;19929;-69
2024/04/18 15:35:20;;;;;;;;;;;;;;;;;;5367135;26;20264;-69
2024/04/18 15:37:46;;;;;;;;;;;;;;;;;;5380123;26;20438;-68
2024/04/18 15:40:12;;;;;;;;;;;;;;;;;;5367826;26;19937;-68
2024/04/18 15:42:38;;;;;;;;;;;;;;;;;;5373843;26;19933;-68
2024/04/18 15:45:04;;;;;;;;;;;;;;;;;;5365819;26;20771;-68
2024/04/18 15:47:30;;;;;;;;;;;;;;;;;;5370875;26;20480;-68
2024/04/18 15:49:56;;;;;;;;;;;;;;;;;;5363227;26;20014;-68
2024/04/18 15:52:22;;;;;;;;;;;;;;;;;;5373009;26;20043;-68
2024/04/18 15:54:48;;;;;;;;;;;;;;;;;;5372749;26;19932;-68
2024/04/18 15:57:14;;;;;;;;;;;;;;;;;;5368095;26;19940;-68
2024/04/18 15:59:40;;;;;;;;;;;;;;;;;;5368731;26;20034;-68
2024/04/18 16:02:08;;;;;;;;;;;;;;;;;;5385351;26;20547;-67
2024/04/18 16:04:34;;;;;;;;;;;;;;;;;;5367853;26;20448;-68
2024/04/18 16:07:00;;;;;;;;;;;;;;;;;;5373167;26;20000;-68
2024/04/18 16:09:26;;;;;;;;;;;;;;;;;;5360588;26;21043;-68
2024/04/18 16:11:52;;;;;;;;;;;;;;;;;;5364361;26;19951;-68
2024/04/18 16:14:18;;;;;;;;;;;;;;;;;;5358790;26;19925;-68
2024/04/18 16:16:44;;;;;;;;;;;;;;;;;;5368991;26;19929;-68
2024/04/18 16:19:10;;;;;;;;;;;;;;;;;;5388610;26;20015;-68
2024/04/18 16:21:36;;;;;;;;;;;;;;;;;;5373091;26;19940;-69
2024/04/18 16:24:02;;;;;;;;;;;;;;;;;;5358130;26;20547;-68
2024/04/18 16:26:28;;;;;;;;;;;;;;;;;;5372258;26;20007;-68
2024/04/18 16:28:54;;;;;;;;;;;;;;;;;;5359758;26;20007;-68
2024/04/18 16:31:20;;;;;;;;;;;;;;;;;;5374678;26;19925;-68
2024/04/18 16:33:46;;;;;;;;;;;;;;;;;;5372609;26;19944;-68
2024/04/18 16:36:12;;;;;;;;;;;;;;;;;;5378575;26;20687;-68
2024/04/18 16:38:38;;;;;;;;;;;;;;;;;;5363010;26;19933;-68